Time;durP1;ratioP1;P1;durP2;ratioP2;P2;SDS_P1;SDS_P2;PMS_P1;PMS_P2;Temp;Humidity;BMP_temperature;BMP_pressure;BME280_temperature;BME280_humidity;BME280_pressure;Samples;Min_cycle;Max_cycle;Signal;HPM_P1;HPM_P2
2021/05/30 00:00:48;;;;;;;3.95;2.30;;;;;;;4.59;84.55;93724.09;2089746;28;20032;-87
2021/05/30 00:01:49;;;;;;;5.63;2.92;;;;;;;4.60;84.88;93734.31;2102366;28;20055;-87
2021/05/30 00:02:50;;;;;;;3.80;2.60;;;;;;;4.64;84.88;93726.44;2089753;28;20025;-86
2021/05/30 00:03:51;;;;;;;5.28;2.97;;;;;;;4.53;84.72;93729.72;2097689;28;20028;-88
2021/05/30 00:04:51;;;;;;;3.00;2.70;;;;;;;4.55;84.92;93727.47;2109166;28;20052;-85
2021/05/30 00:05:52;;;;;;;2.92;2.72;;;;;;;4.59;85.00;93727.50;2099897;28;20115;-88
2021/05/30 00:06:53;;;;;;;3.25;2.60;;;;;;;4.54;85.10;93725.19;2096543;28;20020;-87
2021/05/30 00:07:55;;;;;;;5.22;2.63;;;;;;;4.47;85.24;93720.56;2095966;28;20078;-87
2021/05/30 00:08:56;;;;;;;4.40;2.88;;;;;;;4.49;85.85;93723.63;2095420;28;20036;-87
2021/05/30 00:09:57;;;;;;;6.80;4.65;;;;;;;4.46;86.27;93727.00;2090211;28;20028;-88
2021/05/30 00:10:58;;;;;;;4.03;2.60;;;;;;;4.41;85.97;93722.03;2094071;28;20028;-87
2021/05/30 00:11:59;;;;;;;3.22;2.55;;;;;;;4.48;85.06;93718.72;2089857;28;20021;-86
2021/05/30 00:13:01;;;;;;;2.78;2.58;;;;;;;4.50;85.02;93727.03;2089808;28;20086;-87
2021/05/30 00:14:05;;;;;;;2.70;2.47;;;;;;;4.49;84.21;93723.63;2096476;28;20032;-85
2021/05/30 00:15:11;;;;;;;3.38;2.88;;;;;;;4.42;85.12;93720.91;2102150;28;20094;-89
2021/05/30 00:16:12;;;;;;;3.70;2.60;;;;;;;4.39;85.48;93710.28;2091794;28;20016;-87
2021/05/30 00:17:14;;;;;;;6.03;2.83;;;;;;;4.37;86.46;93718.56;2089615;28;20020;-87
2021/05/30 00:18:15;;;;;;;2.95;2.50;;;;;;;4.45;86.08;93722.84;2089866;28;20658;-86
2021/05/30 00:19:16;;;;;;;4.40;2.60;;;;;;;4.32;86.13;93728.72;2089237;28;20033;-85
2021/05/30 00:20:16;;;;;;;5.30;2.78;;;;;;;4.23;86.10;93721.06;2106094;28;20035;-86
2021/05/30 00:21:17;;;;;;;3.60;2.95;;;;;;;4.29;86.73;93723.03;2097771;28;20078;-86
2021/05/30 00:22:18;;;;;;;3.97;2.47;;;;;;;4.28;85.43;93721.50;2093597;28;20029;-86
2021/05/30 00:23:19;;;;;;;6.43;2.90;;;;;;;4.23;86.20;93716.53;2102012;28;20384;-88
2021/05/30 00:24:19;;;;;;;3.97;2.78;;;;;;;4.43;85.73;93719.00;2093544;28;20032;-85
2021/05/30 00:25:20;;;;;;;4.90;2.60;;;;;;;4.29;85.83;93716.97;2089609;28;20219;-86
2021/05/30 00:26:21;;;;;;;5.28;2.70;;;;;;;4.34;86.15;93714.00;2097617;28;20032;-87
2021/05/30 00:27:21;;;;;;;6.68;2.60;;;;;;;4.30;85.96;93713.19;2089731;28;20036;-87
2021/05/30 00:28:22;;;;;;;2.78;2.58;;;;;;;4.36;86.05;93716.31;2097921;28;20024;-86
2021/05/30 00:29:23;;;;;;;3.28;2.80;;;;;;;4.23;85.78;93715.78;2113688;28;20429;-86
2021/05/30 00:30:24;;;;;;;3.13;2.83;;;;;;;4.19;86.27;93713.06;2098632;28;20024;-86
2021/05/30 00:31:24;;;;;;;2.72;2.50;;;;;;;4.19;87.24;93713.06;2089685;28;20115;-87
2021/05/30 00:32:25;;;;;;;3.50;2.60;;;;;;;4.17;86.83;93706.63;2097339;28;20013;-87
2021/05/30 00:33:26;;;;;;;3.55;2.65;;;;;;;4.12;87.18;93712.97;2101778;28;20043;-87
2021/05/30 00:34:27;;;;;;;4.45;2.85;;;;;;;4.10;87.21;93703.91;2114387;27;20024;-87
2021/05/30 00:35:27;;;;;;;5.30;3.08;;;;;;;4.15;86.56;93703.59;2114643;28;20024;-87
2021/05/30 00:36:28;;;;;;;4.68;3.13;;;;;;;4.10;86.85;93704.66;2104579;28;20087;-87
2021/05/30 00:37:29;;;;;;;4.40;2.63;;;;;;;4.22;86.55;93706.31;2094903;28;20025;-86
2021/05/30 00:38:30;;;;;;;3.95;2.40;;;;;;;4.18;86.17;93708.91;2088440;28;20021;-86
2021/05/30 00:39:30;;;;;;;2.88;2.60;;;;;;;4.17;86.84;93709.25;2085571;28;20520;-86
2021/05/30 00:40:31;;;;;;;5.20;2.50;;;;;;;4.17;86.43;93720.63;2087016;28;20091;-86
2021/05/30 00:41:32;;;;;;;4.47;2.65;;;;;;;4.07;86.73;93712.53;2089550;28;20025;-86
2021/05/30 00:42:33;;;;;;;3.33;3.03;;;;;;;4.14;87.10;93704.72;2097518;28;20103;-87
2021/05/30 00:43:51;;;;;;;4.22;2.60;;;;;;;4.15;86.24;93714.91;2096785;28;20047;-86
2021/05/30 00:44:52;;;;;;;3.42;2.53;;;;;;;4.06;86.46;93708.38;2094722;28;20025;-86
2021/05/30 00:45:52;;;;;;;2.90;2.60;;;;;;;4.03;86.38;93707.22;2089164;28;20452;-87
2021/05/30 00:46:54;;;;;;;3.95;2.95;;;;;;;4.08;86.38;93706.13;2092133;28;20052;-86
2021/05/30 00:47:55;;;;;;;2.80;2.60;;;;;;;4.10;86.67;93711.84;2098263;28;20036;-87
2021/05/30 00:48:56;;;;;;;3.20;2.85;;;;;;;3.98;87.68;93708.28;2102265;28;20040;-87
2021/05/30 00:49:56;;;;;;;4.30;2.63;;;;;;;4.04;87.10;93706.88;2102788;28;20032;-86
2021/05/30 00:51:01;;;;;;;4.75;2.75;;;;;;;4.06;86.68;93713.66;2089207;28;20033;-88
2021/05/30 00:52:04;;;;;;;2.65;2.45;;;;;;;4.03;86.48;93705.31;2090427;28;20053;-86
2021/05/30 00:53:06;;;;;;;4.40;2.50;;;;;;;4.00;87.53;93706.06;2089568;28;20033;-86
2021/05/30 00:54:07;;;;;;;3.35;2.70;;;;;;;3.94;86.92;93701.44;2100805;28;20044;-86
2021/05/30 00:55:09;;;;;;;5.97;2.80;;;;;;;3.92;87.13;93707.09;2105993;28;20024;-87
2021/05/30 00:56:13;;;;;;;2.72;2.53;;;;;;;3.89;86.77;93710.44;2102609;28;20024;-86
2021/05/30 00:57:13;;;;;;;3.08;2.78;;;;;;;3.84;87.39;93710.00;2106399;28;20059;-86
2021/05/30 00:58:14;;;;;;;4.82;3.03;;;;;;;3.93;87.42;93705.97;2098363;28;20528;-87
2021/05/30 00:59:15;;;;;;;3.40;2.63;;;;;;;3.74;87.43;93703.44;2096643;28;20028;-90
2021/05/30 01:00:16;;;;;;;4.35;2.60;;;;;;;3.82;87.75;93713.00;2097539;28;20035;-87
2021/05/30 01:01:17;;;;;;;4.13;2.75;;;;;;;3.81;87.27;93702.75;2092215;28;20032;-86
2021/05/30 01:02:18;;;;;;;3.10;2.85;;;;;;;3.76;87.24;93712.53;2084805;28;20032;-86
2021/05/30 01:03:19;;;;;;;3.45;2.92;;;;;;;3.84;87.66;93707.34;2103855;28;20115;-87
2021/05/30 01:04:19;;;;;;;3.10;2.72;;;;;;;3.79;87.72;93711.06;2096134;28;20020;-85
2021/05/30 01:05:21;;;;;;;3.58;2.85;;;;;;;3.81;87.48;93706.16;2105719;28;20830;-86
2021/05/30 01:06:26;;;;;;;2.90;2.70;;;;;;;3.90;86.84;93711.94;2105341;28;20026;-86
2021/05/30 01:07:27;;;;;;;2.92;2.72;;;;;;;3.87;87.13;93702.13;2098552;28;20107;-89
2021/05/30 01:08:28;;;;;;;3.97;2.97;;;;;;;3.78;86.90;93704.25;2105818;28;20093;-85
2021/05/30 01:09:31;;;;;;;3.10;2.47;;;;;;;3.80;87.02;93704.66;2097135;28;20024;-87
2021/05/30 01:10:34;;;;;;;3.70;2.78;;;;;;;3.65;87.08;93709.00;2090075;28;20020;-88
2021/05/30 01:11:35;;;;;;;3.50;2.83;;;;;;;3.74;87.79;93706.09;2090143;28;20052;-86
2021/05/30 01:12:36;;;;;;;4.10;2.88;;;;;;;3.75;88.10;93710.25;2089406;28;20126;-87
2021/05/30 01:13:38;;;;;;;3.58;2.92;;;;;;;3.74;88.27;93700.81;2105664;28;20837;-87
2021/05/30 01:14:38;;;;;;;4.30;2.70;;;;;;;3.69;87.02;93706.41;2085953;28;20541;-87
2021/05/30 01:15:40;;;;;;;3.40;2.58;;;;;;;3.70;88.19;93702.63;2085770;28;20056;-88
2021/05/30 01:16:41;;;;;;;4.50;2.80;;;;;;;3.74;87.72;93701.56;2084536;28;20028;-86
2021/05/30 01:17:46;;;;;;;4.88;2.58;;;;;;;3.66;87.86;93713.16;2093424;28;20501;-84
2021/05/30 01:18:48;;;;;;;4.22;2.70;;;;;;;3.61;87.89;93710.81;2091325;28;20032;-85
2021/05/30 01:19:54;;;;;;;5.85;2.53;;;;;;;3.73;87.88;93701.91;2095467;28;20036;-87
2021/05/30 01:20:56;;;;;;;6.00;2.50;;;;;;;3.63;88.47;93707.81;2090723;28;20033;-88
2021/05/30 01:21:58;;;;;;;3.03;2.50;;;;;;;3.63;88.05;93713.84;2097583;28;20490;-86
2021/05/30 01:23:11;;;;;;;3.65;2.80;;;;;;;3.60;87.98;93700.59;2105547;28;20024;-87
2021/05/30 01:24:13;;;;;;;3.15;2.47;;;;;;;3.62;88.00;93706.28;2105568;28;20027;-86
2021/05/30 01:25:16;;;;;;;2.83;2.50;;;;;;;3.59;87.87;93709.66;2089216;28;20024;-87
2021/05/30 01:26:17;;;;;;;2.88;2.55;;;;;;;3.51;88.23;93717.50;2083862;28;20065;-86
2021/05/30 01:27:19;;;;;;;4.32;2.45;;;;;;;3.61;88.21;93707.41;2089282;28;20381;-87
2021/05/30 01:28:20;;;;;;;3.50;2.67;;;;;;;3.51;88.40;93711.41;2091528;28;20056;-88
2021/05/30 01:29:21;;;;;;;2.78;2.47;;;;;;;3.46;89.10;93701.91;2096794;28;20028;-86
2021/05/30 01:30:22;;;;;;;3.53;2.88;;;;;;;3.49;88.83;93706.50;2093066;28;20092;-86
2021/05/30 01:31:24;;;;;;;3.55;2.80;;;;;;;3.47;88.47;93703.47;2097423;28;20020;-89
2021/05/30 01:32:24;;;;;;;3.03;2.42;;;;;;;3.47;88.45;93702.69;2088946;28;20031;-88
2021/05/30 01:33:25;;;;;;;4.20;3.00;;;;;;;3.46;88.32;93706.44;2087525;28;20494;-88
2021/05/30 01:34:26;;;;;;;3.60;2.58;;;;;;;3.45;89.16;93704.91;2105378;28;20024;-88
2021/05/30 01:35:27;;;;;;;3.65;2.50;;;;;;;3.47;88.73;93697.41;2092900;28;20025;-87
2021/05/30 01:36:28;;;;;;;4.03;2.60;;;;;;;3.46;88.30;93701.91;2097437;28;20421;-88
2021/05/30 01:37:29;;;;;;;2.88;2.60;;;;;;;3.51;88.37;93703.50;2102946;28;20024;-88
2021/05/30 01:38:30;;;;;;;3.72;2.72;;;;;;;3.47;88.54;93703.47;2088864;28;20033;-89
2021/05/30 01:39:30;;;;;;;2.80;2.42;;;;;;;3.44;88.21;93704.16;2088836;28;20024;-86
2021/05/30 01:40:31;;;;;;;3.40;2.55;;;;;;;3.54;88.08;93703.53;2088923;28;20068;-87
2021/05/30 01:41:32;;;;;;;3.05;2.20;;;;;;;3.49;88.80;93703.84;2088995;28;20025;-86
2021/05/30 01:42:33;;;;;;;2.97;2.53;;;;;;;3.35;88.41;93705.53;2097449;28;20387;-86
2021/05/30 01:43:34;;;;;;;4.25;3.05;;;;;;;3.42;88.38;93703.75;2098044;28;20493;-89
2021/05/30 01:44:35;;;;;;;4.10;2.40;;;;;;;3.47;88.23;93705.34;2101016;28;20020;-89
2021/05/30 01:45:36;;;;;;;2.92;2.65;;;;;;;3.39;87.92;93704.47;2105583;28;20028;-91
2021/05/30 01:46:37;;;;;;;3.05;2.60;;;;;;;3.50;88.25;93700.09;2105603;28;20393;-88
2021/05/30 01:47:42;;;;;;;2.55;2.33;;;;;;;3.27;89.24;93705.41;2097271;28;20032;-84
2021/05/30 01:48:43;;;;;;;2.78;2.58;;;;;;;3.30;89.95;93706.59;2105575;28;20058;-89
2021/05/30 01:49:44;;;;;;;3.28;2.47;;;;;;;3.39;90.00;93709.75;2096232;28;20028;-86
2021/05/30 01:50:48;;;;;;;3.25;2.33;;;;;;;3.35;88.96;93711.56;2089492;28;20056;-88
2021/05/30 01:51:48;;;;;;;3.55;2.50;;;;;;;3.37;88.84;93704.03;2091243;28;20107;-89
2021/05/30 01:52:50;;;;;;;3.90;2.50;;;;;;;3.29;89.30;93705.06;2088216;28;20021;-87
2021/05/30 01:54:03;;;;;;;4.72;2.72;;;;;;;3.31;88.45;93710.75;2104212;28;20759;-88
2021/05/30 01:55:06;;;;;;;2.88;2.67;;;;;;;3.33;88.71;93705.09;2091457;28;20059;-87
2021/05/30 01:57:09;;;;;;;3.85;2.55;;;;;;;3.13;88.98;93702.56;2100766;28;20028;-87
2021/05/30 01:58:12;;;;;;;3.10;2.40;;;;;;;3.21;89.81;93706.09;2105762;28;20076;-88
2021/05/30 01:59:13;;;;;;;4.10;2.30;;;;;;;3.22;90.10;93710.25;2103700;28;20032;-86
2021/05/30 02:00:15;;;;;;;5.88;2.40;;;;;;;3.23;89.90;93701.19;2097578;28;20472;-86
2021/05/30 02:01:16;;;;;;;2.20;2.00;;;;;;;3.11;90.22;93709.31;2100972;28;20243;-85
2021/05/30 02:02:17;;;;;;;2.83;2.45;;;;;;;3.21;90.43;93703.44;2111767;28;20027;-85
2021/05/30 02:03:19;;;;;;;2.70;2.47;;;;;;;3.18;89.15;93701.50;2114223;28;20020;-86
2021/05/30 02:05:28;;;;;;;;;;;;;;;3.15;88.69;93702.19;2140628;27;20126;-87
2021/05/30 02:06:30;;;;;;;3.53;2.10;;;;;;;3.22;89.16;93700.44;2117741;28;19911;-88
2021/05/30 02:07:33;;;;;;;2.25;2.03;;;;;;;3.18;88.89;93699.63;2100560;28;20024;-87
2021/05/30 02:08:34;;;;;;;2.55;2.35;;;;;;;3.13;88.68;93705.19;2100080;28;20028;-87
2021/05/30 02:09:37;;;;;;;3.58;2.20;;;;;;;3.03;89.09;93698.63;2102325;28;20020;-87
2021/05/30 02:10:38;;;;;;;2.40;2.20;;;;;;;3.14;89.14;93700.69;2102632;28;20047;-87
2021/05/30 02:11:39;;;;;;;2.88;2.67;;;;;;;3.09;88.84;93701.75;2102658;28;20028;-87
2021/05/30 02:12:41;;;;;;;3.60;2.38;;;;;;;3.12;88.17;93705.56;2109571;28;20024;-86
2021/05/30 02:13:43;;;;;;;3.42;2.10;;;;;;;3.10;88.40;93697.97;2106676;28;20024;-88
2021/05/30 02:14:43;;;;;;;3.10;2.60;;;;;;;3.08;88.87;93699.47;2108030;28;20058;-86
2021/05/30 02:15:45;;;;;;;3.13;2.40;;;;;;;3.07;89.51;93701.31;2103078;28;20477;-87
2021/05/30 02:16:46;;;;;;;2.50;2.30;;;;;;;3.09;89.71;93707.03;2109098;28;20031;-86
2021/05/30 02:17:47;;;;;;;4.13;2.40;;;;;;;3.01;89.02;93698.22;2118595;27;20054;-87
2021/05/30 02:18:48;;;;;;;3.40;2.58;;;;;;;3.02;89.40;93694.44;2134484;27;20446;-86
2021/05/30 02:19:48;;;;;;;3.00;2.50;;;;;;;3.03;90.22;93700.53;2135309;27;20019;-87
2021/05/30 02:20:49;;;;;;;3.38;2.30;;;;;;;3.02;89.71;93697.09;2118622;28;20027;-86
2021/05/30 02:21:52;;;;;;;3.47;2.60;;;;;;;3.05;89.69;93702.81;2098954;28;20465;-86
2021/05/30 02:22:53;;;;;;;3.15;2.42;;;;;;;3.07;89.31;93703.97;2102832;28;20024;-86
2021/05/30 02:23:53;;;;;;;3.63;2.30;;;;;;;3.01;89.29;93700.84;2111762;28;20071;-87
2021/05/30 02:24:54;;;;;;;2.80;2.60;;;;;;;3.05;89.17;93703.56;2104735;28;20032;-87
2021/05/30 02:25:55;;;;;;;3.17;2.40;;;;;;;3.01;89.55;93702.75;2099963;28;20020;-87
2021/05/30 02:26:55;;;;;;;4.53;2.42;;;;;;;3.00;90.00;93693.31;2100771;28;20052;-87
2021/05/30 02:27:57;;;;;;;5.57;2.53;;;;;;;2.97;89.64;93699.28;2101024;28;20032;-85
2021/05/30 02:28:57;;;;;;;3.58;2.58;;;;;;;2.98;90.32;93695.50;2117392;27;20083;-86
2021/05/30 02:29:58;;;;;;;2.88;2.47;;;;;;;2.92;90.30;93702.22;2115288;28;20065;-86
2021/05/30 02:30:59;;;;;;;3.50;2.22;;;;;;;2.92;90.57;93699.56;2110473;28;20227;-86
2021/05/30 02:32:01;;;;;;;3.60;2.42;;;;;;;2.94;90.45;93705.25;2108717;28;20038;-87
2021/05/30 02:33:03;;;;;;;2.55;2.35;;;;;;;3.00;89.76;93701.22;2101721;28;20412;-87
2021/05/30 02:34:04;;;;;;;2.65;2.45;;;;;;;2.90;89.17;93696.53;2119752;27;20519;-86
2021/05/30 02:35:05;;;;;;;2.85;2.50;;;;;;;2.92;89.44;93702.97;2118566;28;20024;-86
2021/05/30 02:36:06;;;;;;;2.58;2.30;;;;;;;2.90;89.60;93699.94;2110132;27;20028;-86
2021/05/30 02:37:08;;;;;;;3.95;2.78;;;;;;;2.94;89.77;93705.25;2108599;28;20027;-88
2021/05/30 02:38:09;;;;;;;3.40;2.47;;;;;;;2.90;90.25;93701.81;2108992;28;20032;-86
2021/05/30 02:39:10;;;;;;;2.95;2.70;;;;;;;2.88;90.08;93699.50;2117675;28;20030;-86
2021/05/30 02:40:12;;;;;;;2.88;2.60;;;;;;;2.97;89.80;93699.28;2118415;28;20054;-85
2021/05/30 02:41:13;;;;;;;3.67;2.63;;;;;;;2.91;89.82;93687.50;2115359;27;20045;-86
2021/05/30 02:42:14;;;;;;;2.85;2.53;;;;;;;2.84;90.55;93698.69;2114873;28;20024;-85
2021/05/30 02:43:14;;;;;;;4.88;2.88;;;;;;;2.89;90.14;93703.66;2108942;28;20019;-87
2021/05/30 02:44:15;;;;;;;2.65;2.42;;;;;;;2.90;89.81;93699.19;2116759;28;20423;-87
2021/05/30 02:45:16;;;;;;;3.05;2.40;;;;;;;2.87;89.84;93703.28;2115750;28;20074;-87
2021/05/30 02:46:17;;;;;;;3.38;2.72;;;;;;;2.98;89.41;93704.19;2099696;28;21075;-87
2021/05/30 02:47:17;;;;;;;3.60;2.47;;;;;;;2.87;89.13;93710.44;2117109;27;20032;-87
2021/05/30 02:48:18;;;;;;;4.22;2.50;;;;;;;2.76;89.28;93699.69;2112022;28;20027;-86
2021/05/30 02:49:19;;;;;;;3.80;2.45;;;;;;;2.80;90.39;93700.50;2117292;28;20024;-87
2021/05/30 02:50:20;;;;;;;3.70;2.30;;;;;;;2.72;89.18;93710.19;2118471;28;20019;-86
2021/05/30 02:51:20;;;;;;;3.65;2.60;;;;;;;2.75;89.55;93703.44;2125317;27;20248;-86
2021/05/30 02:52:21;;;;;;;6.50;2.78;;;;;;;2.69;90.45;93707.50;2108869;28;20027;-86
2021/05/30 02:53:22;;;;;;;3.38;2.40;;;;;;;2.75;90.96;93709.47;2118327;27;20558;-86
2021/05/30 02:54:23;;;;;;;2.55;2.35;;;;;;;2.75;90.31;93708.72;2115510;28;20398;-85
2021/05/30 02:55:23;;;;;;;7.47;2.80;;;;;;;2.84;90.16;93711.88;2109164;28;20161;-85
2021/05/30 02:56:24;;;;;;;2.63;2.42;;;;;;;2.79;90.14;93714.81;2117193;28;20042;-85
2021/05/30 02:57:25;;;;;;;2.70;2.50;;;;;;;2.78;90.46;93708.03;2100939;28;20626;-87
2021/05/30 02:58:28;;;;;;;3.20;2.75;;;;;;;2.71;90.94;93707.88;2100177;28;20143;-87
2021/05/30 02:59:29;;;;;;;2.95;2.75;;;;;;;2.77;90.30;93704.63;2108751;27;20020;-87
2021/05/30 03:00:30;;;;;;;2.83;2.55;;;;;;;2.69;91.08;93710.13;2111112;28;20050;-86
2021/05/30 03:01:30;;;;;;;2.92;2.40;;;;;;;2.74;90.37;93709.84;2111151;28;20380;-86
2021/05/30 03:02:31;;;;;;;4.95;2.47;;;;;;;2.72;89.37;93710.19;2118738;27;20282;-85
2021/05/30 03:03:32;;;;;;;2.63;2.42;;;;;;;2.66;89.77;93703.66;2110779;28;20110;-85
2021/05/30 03:04:33;;;;;;;2.67;2.45;;;;;;;2.63;90.58;93704.34;2109266;28;20035;-86
2021/05/30 03:05:33;;;;;;;3.53;2.50;;;;;;;2.63;91.25;93704.34;2108543;28;20103;-86
2021/05/30 03:06:34;;;;;;;3.83;2.85;;;;;;;2.67;91.22;93707.81;2110546;28;20380;-85
2021/05/30 03:07:35;;;;;;;3.13;2.60;;;;;;;2.61;91.74;93711.13;2109845;28;20031;-86
2021/05/30 03:08:36;;;;;;;5.22;2.80;;;;;;;2.64;91.44;93702.50;2116344;28;20023;-87
2021/05/30 03:09:38;;;;;;;2.80;2.60;;;;;;;2.57;91.31;93711.03;2107130;28;20032;-87
2021/05/30 03:10:39;;;;;;;2.80;2.60;;;;;;;2.63;92.17;93712.28;2102308;28;20495;-85
2021/05/30 03:11:40;;;;;;;4.28;2.40;;;;;;;2.58;92.26;93712.56;2119710;27;20500;-86
2021/05/30 03:12:40;;;;;;;4.13;2.60;;;;;;;2.66;91.62;93711.56;2119469;28;20024;-86
2021/05/30 03:13:41;;;;;;;2.53;2.17;;;;;;;2.63;92.29;93711.50;2118410;28;20178;-86
2021/05/30 03:14:42;;;;;;;2.80;2.55;;;;;;;2.65;91.77;93707.41;2117868;28;20092;-86
2021/05/30 03:15:43;;;;;;;3.28;3.00;;;;;;;2.69;91.63;93710.13;2108420;28;20035;-85
2021/05/30 03:16:43;;;;;;;4.75;2.72;;;;;;;2.68;91.22;93719.94;2113372;28;20027;-87
2021/05/30 03:17:44;;;;;;;3.30;2.20;;;;;;;2.66;91.17;93716.84;2100659;28;20068;-86
2021/05/30 03:18:45;;;;;;;2.97;2.40;;;;;;;2.69;90.12;93712.78;2094796;28;20247;-86
2021/05/30 03:19:46;;;;;;;3.92;2.53;;;;;;;2.67;90.40;93710.47;2111192;28;20050;-86
2021/05/30 03:20:46;;;;;;;2.90;2.50;;;;;;;2.73;90.10;93716.22;2112087;28;20500;-85
2021/05/30 03:21:47;;;;;;;2.40;2.20;;;;;;;2.63;89.83;93716.78;2111334;28;20031;-86
2021/05/30 03:22:48;;;;;;;4.72;2.50;;;;;;;2.57;90.20;93713.69;2100788;28;20032;-86
2021/05/30 03:23:49;;;;;;;2.58;2.38;;;;;;;2.58;91.03;93717.09;2113325;28;20503;-86
2021/05/30 03:24:49;;;;;;;3.75;2.33;;;;;;;2.56;90.71;93714.03;2113744;28;20031;-86
2021/05/30 03:25:50;;;;;;;2.88;2.67;;;;;;;2.49;91.18;93718.06;2103513;28;20054;-86
2021/05/30 03:26:51;;;;;;;3.40;2.45;;;;;;;2.46;91.03;93713.50;2104094;28;20056;-85
2021/05/30 03:27:52;;;;;;;2.58;2.38;;;;;;;2.45;91.22;93719.09;2113378;27;20030;-85
2021/05/30 03:28:53;;;;;;;3.30;2.70;;;;;;;2.35;90.98;93714.41;2111468;28;20448;-85
2021/05/30 03:29:56;;;;;;;5.35;2.75;;;;;;;2.43;91.53;93716.81;2104646;28;20051;-85
2021/05/30 03:30:57;;;;;;;3.70;2.60;;;;;;;2.56;91.32;93721.97;2094573;28;20029;-87
2021/05/30 03:31:58;;;;;;;4.82;2.45;;;;;;;2.46;90.86;93713.50;2102897;28;20512;-86
2021/05/30 03:33:00;;;;;;;3.72;2.35;;;;;;;2.46;91.10;93718.78;2110278;28;20051;-85
2021/05/30 03:34:00;;;;;;;3.33;2.33;;;;;;;2.50;91.19;93718.81;2111934;27;20178;-86
2021/05/30 03:35:03;;;;;;;6.22;2.45;;;;;;;2.49;91.52;93712.03;2112008;28;20480;-86
2021/05/30 03:36:07;;;;;;;6.68;2.90;;;;;;;2.52;91.24;93720.00;2120676;27;20022;-86
2021/05/30 03:37:08;;;;;;;3.88;2.60;;;;;;;2.56;91.27;93716.69;2117584;27;20084;-86
2021/05/30 03:38:11;;;;;;;5.35;2.40;;;;;;;2.51;90.47;93715.84;2113253;28;20299;-86
2021/05/30 03:39:12;;;;;;;2.90;2.60;;;;;;;2.49;90.63;93712.03;2111171;28;20073;-86
2021/05/30 03:40:29;;;;;;;6.50;2.88;;;;;;;2.52;91.33;93713.97;2102662;28;20024;-86
2021/05/30 03:41:34;;;;;;;4.05;2.42;;;;;;;2.47;91.46;93709.75;2108748;27;20027;-86
2021/05/30 03:42:36;;;;;;;2.85;2.65;;;;;;;2.46;91.62;93713.50;2111817;28;20051;-84
2021/05/30 03:43:39;;;;;;;3.03;2.72;;;;;;;2.47;91.05;93720.28;2095504;28;20021;-86
2021/05/30 03:44:40;;;;;;;3.35;2.67;;;;;;;2.36;91.04;93714.03;2096867;28;20374;-86
2021/05/30 03:45:41;;;;;;;2.80;2.28;;;;;;;2.36;91.17;93708.78;2104819;28;20035;-87
2021/05/30 03:46:42;;;;;;;3.78;2.50;;;;;;;2.39;90.97;93716.00;2111272;28;20462;-85
2021/05/30 03:47:42;;;;;;;3.33;2.60;;;;;;;2.36;90.81;93715.94;2113771;28;20032;-85
2021/05/30 03:48:43;;;;;;;2.75;2.13;;;;;;;2.52;90.13;93709.44;2112788;28;20035;-86
2021/05/30 03:49:44;;;;;;;3.03;2.38;;;;;;;2.47;90.67;93708.97;2110046;28;20436;-84
2021/05/30 03:50:49;;;;;;;4.45;2.47;;;;;;;2.46;91.12;93710.88;2112455;28;20434;-87
2021/05/30 03:51:49;;;;;;;3.75;2.72;;;;;;;2.47;91.32;93709.75;2104796;27;20028;-85
2021/05/30 03:52:50;;;;;;;3.45;2.70;;;;;;;2.33;91.65;93709.50;2121287;27;20046;-85
2021/05/30 03:53:51;;;;;;;2.67;2.47;;;;;;;2.38;91.96;93711.84;2104133;28;20111;-86
2021/05/30 03:54:52;;;;;;;3.60;2.17;;;;;;;2.39;91.58;93718.63;2104295;28;20046;-87
2021/05/30 03:55:53;;;;;;;4.25;2.85;;;;;;;2.43;91.57;93711.56;2104375;28;20058;-86
2021/05/30 03:56:53;;;;;;;2.63;2.42;;;;;;;2.45;91.44;93713.84;2103629;28;20040;-85
2021/05/30 03:57:55;;;;;;;2.33;2.13;;;;;;;2.43;91.58;93708.91;2111554;28;20491;-87
2021/05/30 03:58:56;;;;;;;4.07;2.47;;;;;;;2.44;91.80;93713.06;2104184;28;20464;-85
2021/05/30 04:00:01;;;;;;;4.47;2.30;;;;;;;2.44;91.98;93714.94;2097213;28;20496;-86
2021/05/30 04:01:02;;;;;;;2.28;2.00;;;;;;;2.48;92.35;93706.00;2102581;28;20024;-85
2021/05/30 04:02:06;;;;;;;2.95;2.47;;;;;;;2.49;92.66;93712.03;2093980;28;20096;-85
2021/05/30 04:03:08;;;;;;;2.90;2.45;;;;;;;2.47;92.45;93708.97;2102777;28;20528;-85
2021/05/30 04:04:08;;;;;;;2.72;2.25;;;;;;;2.45;92.25;93706.69;2105259;28;20028;-85
2021/05/30 04:05:10;;;;;;;4.35;2.78;;;;;;;2.52;92.20;93706.06;2100424;28;20496;-85
2021/05/30 04:06:11;;;;;;;2.53;2.33;;;;;;;2.49;92.14;93704.09;2095422;28;20384;-85
2021/05/30 04:07:12;;;;;;;2.53;2.30;;;;;;;2.50;91.06;93703.78;2103692;28;20035;-84
2021/05/30 04:08:12;;;;;;;3.00;2.45;;;;;;;2.50;91.08;93711.69;2103297;28;20047;-86
2021/05/30 04:09:13;;;;;;;3.85;2.17;;;;;;;2.58;90.92;93701.25;2111492;28;20078;-86
2021/05/30 04:10:14;;;;;;;2.75;2.38;;;;;;;2.53;90.65;93716.25;2111791;28;20025;-85
2021/05/30 04:11:15;;;;;;;2.72;2.40;;;;;;;2.58;90.99;93707.28;2103429;28;20047;-86
2021/05/30 04:12:16;;;;;;;4.03;2.20;;;;;;;2.59;90.79;93708.84;2110687;28;20049;-87
2021/05/30 04:13:16;;;;;;;3.17;2.63;;;;;;;2.61;91.05;93708.47;2104703;28;20020;-85
2021/05/30 04:14:17;;;;;;;2.83;2.38;;;;;;;2.63;91.87;93701.72;2111670;28;20031;-85
2021/05/30 04:15:19;;;;;;;2.72;2.20;;;;;;;2.60;90.31;93701.69;2104534;28;20057;-86
2021/05/30 04:16:19;;;;;;;5.05;2.80;;;;;;;2.61;91.48;93703.97;2101830;28;20054;-86
2021/05/30 04:17:20;;;;;;;4.78;2.35;;;;;;;2.65;91.99;93696.09;2093312;28;20334;-86
2021/05/30 04:18:22;;;;;;;3.60;2.70;;;;;;;2.65;91.38;93698.75;2096395;28;20024;-85
2021/05/30 04:19:23;;;;;;;4.25;2.85;;;;;;;2.66;90.82;93698.38;2094384;28;20496;-85
2021/05/30 04:20:23;;;;;;;6.18;2.35;;;;;;;2.74;91.57;93692.13;2094595;28;20020;-84
2021/05/30 04:21:25;;;;;;;4.38;2.97;;;;;;;2.75;91.01;93698.16;2101285;28;20511;-87
2021/05/30 04:22:26;;;;;;;4.85;2.72;;;;;;;2.70;91.46;93701.84;2114288;27;20365;-86
2021/05/30 04:23:27;;;;;;;2.80;2.30;;;;;;;2.85;90.94;93687.00;2114219;28;20058;-86
2021/05/30 04:24:27;;;;;;;2.67;2.47;;;;;;;2.85;90.61;93702.09;2116829;27;20019;-85
2021/05/30 04:25:28;;;;;;;2.70;2.35;;;;;;;2.84;90.23;93695.28;2111222;28;20027;-87
2021/05/30 04:26:29;;;;;;;3.45;2.80;;;;;;;2.82;90.63;93698.28;2095274;28;20406;-84
2021/05/30 04:27:29;;;;;;;3.60;2.45;;;;;;;2.88;90.62;93694.22;2103160;28;20020;-86
2021/05/30 04:28:30;;;;;;;3.15;2.70;;;;;;;2.82;91.56;93693.00;2102674;28;20016;-86
2021/05/30 04:29:31;;;;;;;3.33;2.80;;;;;;;2.87;92.21;93700.63;2100752;28;20024;-85
2021/05/30 04:30:32;;;;;;;3.00;2.70;;;;;;;2.90;92.19;93691.25;2118679;27;20432;-86
2021/05/30 04:31:33;;;;;;;3.47;2.72;;;;;;;2.87;91.74;93698.00;2111790;28;20039;-85
2021/05/30 04:32:34;;;;;;;5.15;2.47;;;;;;;2.93;91.70;93698.44;2102301;28;20524;-86
2021/05/30 04:33:35;;;;;;;2.92;2.55;;;;;;;2.87;92.44;93694.59;2110778;28;20050;-87
2021/05/30 04:34:36;;;;;;;2.67;2.47;;;;;;;3.01;92.00;93687.66;2111748;28;20028;-85
2021/05/30 04:35:36;;;;;;;4.50;2.65;;;;;;;3.00;91.45;93698.56;2103126;28;20050;-84
2021/05/30 04:36:37;;;;;;;3.13;2.47;;;;;;;3.02;91.63;93697.09;2102039;28;20127;-85
2021/05/30 04:37:39;;;;;;;4.85;2.65;;;;;;;3.05;91.45;93694.88;2110437;28;20526;-87
2021/05/30 04:38:40;;;;;;;2.75;2.55;;;;;;;3.09;91.67;93693.06;2093667;28;20744;-86
2021/05/30 04:39:40;;;;;;;2.60;2.40;;;;;;;3.13;91.64;93697.28;2093693;28;20028;-87
2021/05/30 04:40:41;;;;;;;4.05;2.63;;;;;;;3.12;91.29;93693.13;2105017;28;20377;-85
2021/05/30 04:41:42;;;;;;;3.13;2.78;;;;;;;3.17;91.32;93690.19;2102234;28;20024;-86
2021/05/30 04:42:42;;;;;;;3.42;2.35;;;;;;;3.18;91.24;93691.69;2089374;28;20025;-86
2021/05/30 04:43:43;;;;;;;3.92;2.90;;;;;;;3.21;91.48;93691.00;2107625;28;20111;-86
2021/05/30 04:44:45;;;;;;;2.58;2.20;;;;;;;3.26;91.52;93687.28;2119488;27;20059;-86
2021/05/30 04:45:45;;;;;;;2.53;2.08;;;;;;;3.31;91.13;93691.50;2110362;28;20475;-87
2021/05/30 04:46:46;;;;;;;2.72;2.53;;;;;;;3.34;90.97;93691.56;2104654;28;20023;-87
2021/05/30 04:47:47;;;;;;;3.08;2.40;;;;;;;3.40;91.12;93695.41;2096301;28;20032;-86
2021/05/30 04:48:47;;;;;;;2.47;2.28;;;;;;;3.40;91.59;93679.56;2103377;28;20033;-86
2021/05/30 04:49:48;;;;;;;3.70;2.50;;;;;;;3.50;91.90;93697.44;2110942;28;20469;-86
2021/05/30 04:52:09;;;;;;;5.40;2.75;;;;;;;3.61;91.77;93686.28;2113322;27;20026;-85
2021/05/30 04:53:10;;;;;;;4.15;2.90;;;;;;;3.69;91.95;93687.91;2111635;27;20031;-86
2021/05/30 04:54:11;;;;;;;3.05;2.75;;;;;;;3.75;92.40;93684.56;2103666;28;20038;-86
2021/05/30 04:55:12;;;;;;;4.07;2.75;;;;;;;3.94;93.41;93674.97;2112508;28;20023;-86
2021/05/30 04:56:20;;;;;;;3.63;3.33;;;;;;;3.91;92.75;93684.41;2111689;28;20015;-85